Flight Track Log - Related Links

Times and Time Zones

All times are in EDT time to prevent confusion due to time zone crossing. See the UAL1519 flight status page for this flight to view local times or setup timezone preferences in your user account.

Time Position Orientation Groundspeed Altitude Reporting Facility
EDT Latitude Longitude Course Direction KTS MPH feet Rate Location/Type
Sat 09:58:45 AM 40.7167 -74.1333 123° Southeast 183 211 2,000  Level New York TRACON
Sat 09:59:45 AM 40.7667 -74.0833 37° Northeast 242 278 3,000 1,400 Climbing New York TRACON
Sat 10:00:45 AM 40.7833 -74.1500 288° West 271 312 4,800 2,450 Climbing New York TRACON
Sat 10:01:00 AM 40.2084 -74.1500 180° South  Level FlightAware Approximate
Sat 10:01:45 AM 40.7167 -74.2000 210° Southwest 287 330 7,900  Level New York TRACON
Sat 10:02:00 AM 40.0833 -74.1453 90° East  Level FlightAware Approximate
Sat 10:02:45 AM 40.6333 -74.2333 197° South 298 343 10,900  Level New York TRACON
Sat 10:03:00 AM 40.0398 -73.9964 123° Southeast  Level FlightAware Approximate
Sat 10:04:40 AM 40.4653 -74.2219 177° South 352 405 13,200  Level New York Center
Sat 10:05:42 AM 40.3492 -74.2025 173° South 377 434 15,300 1,537 Climbing New York Center
Sat 10:06:41 AM 40.2411 -74.1889 175° South 388 447 16,300 1,250 Climbing New York Center
Sat 10:07:42 AM 40.1358 -74.1592 168° South 388 447 17,800 1,966 Climbing New York Center
Sat 10:08:40 AM 40.0872 -74.0319 117° Southeast 360 414 20,200 2,390 Climbing New York Center
Sat 10:09:40 AM 40.0561 -73.8814 105° East 381 438 22,500 1,339 Climbing New York Center
Sat 10:10:41 AM 40.0283 -73.7472 105° East 405 466 22,900 198 Climbing New York Center
Sat 10:11:41 AM 39.9886 -73.5803 107° East 424 488 22,900 50 Level New York Center
Sat 10:12:42 AM 39.9583 -73.4439 106° East 430 495 23,000 50 Climbing New York Center
Sat 10:13:42 AM 39.9261 -73.2964 106° East 430 495 23,000 -50 Level New York Center
Sat 10:14:43 AM 39.8919 -73.1464 106° East 430 495 22,900  Descending New York Center
Sat 10:15:40 AM 39.8594 -72.9964 106° East 425 489 23,000 51 Climbing New York Center
Sat 10:16:41 AM 39.8225 -72.8439 107° East 425 489 23,000  Level New York Center
Sat 10:17:43 AM 39.7731 -72.7047 115° Southeast 425 489 23,000 706 Level New York Center
Sat 10:18:40 AM 39.6894 -72.5864 133° Southeast 430 495 24,400 1,627 Climbing New York Center
Sat 10:19:41 AM 39.5953 -72.4681 136° Southeast 446 513 26,200 1,721 Climbing New York Center
Sat 10:20:42 AM 39.5011 -72.3528 137° Southeast 462 532 27,900 1,613 Climbing New York Center
Sat 10:21:40 AM 39.4006 -72.2350 138° Southeast 483 556 29,400 1,613 Climbing New York Center
Sat 10:22:41 AM 39.3019 -72.1147 137° Southeast 489 563 31,100 1,388 Climbing New York Center
Sat 10:23:41 AM 39.1989 -71.9922 137° Southeast 494 568 32,200 1,140 Climbing New York Center
Sat 10:24:42 AM 39.0981 -71.8700 137° Southeast 494 568 33,400 1,200 Climbing New York Center
Sat 10:25:41 AM 38.9928 -71.7481 138° Southeast 494 568 34,600 1,450 Climbing New York Center
Sat 10:26:42 AM 38.8875 -71.6161 136° Southeast 505 581 36,300 1,190 Climbing New York Center
Sat 10:27:42 AM 38.7842 -71.5028 139° Southeast 510 587 37,000 347 Climbing New York Center
Sat 10:28:43 AM 38.6847 -71.3767 135° Southeast 505 581 37,000 -51 Level New York Center
Sat 10:29:40 AM 38.5833 -71.2536 136° Southeast 505 581 36,900 -51 Descending New York Center
Sat 10:30:41 AM 38.4814 -71.1389 139° Southeast 500 575 36,900 50 Level New York Center
Sat 10:31:41 AM 38.3817 -71.0164 136° Southeast 495 570 37,000 50 Climbing New York Center
Sat 10:32:42 AM 38.2736 -70.9047 141° Southeast 495 570 37,000  Level New York Center
Sat 10:33:41 AM 38.1694 -70.7964 141° Southeast 495 570 37,000  Level New York Center
Sat 10:34:42 AM 38.0733 -70.6669 133° Southeast 495 570 37,000 -50 Level New York Center
Sat 10:35:41 AM 37.9628 -70.5642 144° Southeast 495 570 36,900  Descending New York Center
Sat 10:36:42 AM 38.0000 -70.5833 153° Southeast 490 564 37,000 98 Climbing New York Oceanic (ODAPS)
Sat 10:36:42 AM 37.8458 -70.4803 153° Southeast 489 563 37,000 -98 Level New York Center
Sat 10:37:43 AM 37.7206 -70.4203 159° South 477 549 36,900  Descending New York Center
Sat 10:39:00 AM 37.5883 -70.3097 155° Southeast  Level FlightAware Approximate
Sat 10:46:00 AM 36.7770 -69.8276 154° Southeast  Level FlightAware Approximate
Sat 10:47:00 AM 36.6622 -69.7565 154° Southeast  Level FlightAware Approximate
Sat 10:48:00 AM 36.5473 -69.6855 154° Southeast  Level FlightAware Approximate
Sat 10:49:00 AM 36.4318 -69.6163 154° Southeast  Level FlightAware Approximate
Sat 10:50:00 AM 36.3160 -69.5478 155° Southeast  Level FlightAware Approximate
Sat 10:51:00 AM 36.2002 -69.4795 155° Southeast  Level FlightAware Approximate
Sat 10:51:52 AM 36.1667 -69.4500 168° South 472 543 37,000  Level New York Oceanic (ODAPS)
Sat 10:52:00 AM 36.0790 -69.4305 167° South  Level FlightAware Approximate
Sat 10:53:00 AM 35.9538 -69.3961 167° South  Level FlightAware Approximate
Sat 10:54:00 AM 35.8287 -69.3619 167° South  Level FlightAware Approximate
Sat 10:55:00 AM 35.7034 -69.3278 168° South  Level FlightAware Approximate
Sat 10:56:00 AM 35.5782 -69.2937 168° South  Level FlightAware Approximate
Sat 10:57:00 AM 35.4530 -69.2598 168° South  Level FlightAware Approximate
Sat 10:58:00 AM 35.1371 -69.1751 168° South 472 543 37,000  Level FlightAware Transoceanic
Sat 10:59:00 AM 35.0083 -69.1413 168° South 472 543 37,000  Level FlightAware Transoceanic
Sat 11:00:00 AM 34.8796 -69.1075 168° South 472 543 37,000  Level FlightAware Transoceanic
Sat 11:01:00 AM 34.7508 -69.0739 168° South 472 543 37,000  Level FlightAware Transoceanic
Sat 11:02:00 AM 34.6221 -69.0403 168° South 472 543 37,000  Level FlightAware Transoceanic
Sat 11:03:00 AM 34.4933 -69.0069 168° South 472 543 37,000  Level FlightAware Transoceanic
Sat 11:04:00 AM 34.3645 -68.9735 168° South 472 543 37,000  Level FlightAware Transoceanic
Sat 11:05:00 AM 34.2357 -68.9403 168° South 472 543 37,000  Level FlightAware Transoceanic
Sat 11:06:00 AM 34.1069 -68.9071 168° South 472 543 37,000  Level FlightAware Transoceanic
Sat 11:07:00 AM 33.9781 -68.8741 168° South 472 543 37,000  Level FlightAware Transoceanic
Sat 11:08:00 AM 33.8492 -68.8412 168° South 472 543 37,000  Level FlightAware Transoceanic
Sat 11:09:00 AM 33.7204 -68.8083 168° South 472 543 37,000  Level FlightAware Transoceanic
Sat 11:10:00 AM 33.5916 -68.7756 168° South 472 543 37,000  Level FlightAware Transoceanic
Sat 11:11:00 AM 33.4627 -68.7429 168° South 472 543 37,000  Level FlightAware Transoceanic
Sat 11:12:00 AM 33.3339 -68.7104 168° South 472 543 37,000  Level FlightAware Transoceanic
Sat 11:13:00 AM 33.2050 -68.6779 168° South 472 543 37,000  Level FlightAware Transoceanic
Sat 11:14:00 AM 33.0761 -68.6456 168° South 472 543 37,000  Level FlightAware Transoceanic
Sat 11:15:00 AM 32.9472 -68.6133 168° South 472 543 37,000  Level FlightAware Transoceanic
Sat 11:16:00 AM 32.8183 -68.5812 168° South 472 543 37,000  Level FlightAware Transoceanic
Sat 11:17:00 AM 32.6894 -68.5491 168° South 472 543 37,000  Level FlightAware Transoceanic
Sat 11:18:00 AM 32.5605 -68.5171 168° South 472 543 37,000  Level FlightAware Transoceanic
Sat 11:19:00 AM 32.4316 -68.4852 168° South 472 543 37,000  Level FlightAware Transoceanic
Sat 11:20:00 AM 32.3027 -68.4534 168° South 472 543 37,000  Level FlightAware Transoceanic
Sat 11:21:00 AM 32.1738 -68.4217 168° South 472 543 37,000  Level FlightAware Transoceanic
Sat 11:22:00 AM 32.0448 -68.3901 168° South 472 543 37,000  Level FlightAware Transoceanic
Sat 11:23:00 AM 31.9159 -68.3586 168° South 472 543 37,000  Level FlightAware Transoceanic
Sat 11:24:00 AM 31.7869 -68.3271 168° South 472 543 37,000  Level FlightAware Transoceanic
Sat 11:25:00 AM 31.6579 -68.2958 168° South 472 543 37,000  Level FlightAware Transoceanic
Sat 11:26:00 AM 31.5290 -68.2645 168° South 472 543 37,000  Level FlightAware Transoceanic
Sat 11:27:00 AM 31.4000 -68.2333 168° South 472 543 37,000  Level FlightAware Transoceanic
Sat 11:28:00 AM 31.2701 -68.2021 168° South 472 543 37,000  Level FlightAware Transoceanic
Sat 11:29:00 AM 31.1403 -68.1709 168° South 472 543 37,000  Level FlightAware Transoceanic
Sat 11:30:00 AM 31.0104 -68.1398 168° South 472 543 37,000  Level FlightAware Transoceanic
Sat 11:31:00 AM 30.8805 -68.1088 168° South 472 543 37,000  Level FlightAware Transoceanic
Sat 11:32:00 AM 30.7506 -68.0779 168° South 472 543 37,000  Level FlightAware Transoceanic
Sat 11:33:00 AM 30.6207 -68.0470 168° South 472 543 37,000  Level FlightAware Transoceanic
Sat 11:34:00 AM 30.4908 -68.0162 168° South 472 543 37,000  Level FlightAware Transoceanic
Sat 11:35:00 AM 30.3608 -67.9856 168° South 472 543 37,000  Level FlightAware Transoceanic
Sat 11:35:02 AM 31.4000 -68.2333 168° South 478 550 37,000  Level New York Oceanic (ODAPS)
Sat 11:36:00 AM 30.2309 -67.9550 169° South 472 543 37,000  Level FlightAware Transoceanic
Sat 11:37:00 AM 30.1010 -67.9245 169° South 472 543 37,000  Level FlightAware Transoceanic
Sat 11:38:00 AM 29.9711 -67.8940 169° South 472 543 37,000  Level FlightAware Transoceanic
Sat 11:39:00 AM 29.8411 -67.8637 169° South 472 543 37,000  Level FlightAware Transoceanic
Sat 11:40:00 AM 29.7111 -67.8334 169° South 472 543 37,000  Level FlightAware Transoceanic
Sat 11:41:00 AM 29.4779 -67.7792 169° South 478 550 37,000  Level FlightAware Transoceanic
Sat 11:42:00 AM 29.3497 -67.7496 169° South 478 550 37,000  Level FlightAware Transoceanic
Sat 11:43:00 AM 29.2215 -67.7200 169° South 478 550 37,000  Level FlightAware Transoceanic
Sat 11:44:00 AM 29.0933 -67.6905 169° South 478 550 37,000  Level FlightAware Transoceanic
Sat 11:45:00 AM 28.9651 -67.6611 169° South 478 550 37,000  Level FlightAware Transoceanic
Sat 11:46:00 AM 28.8369 -67.6317 169° South 478 550 37,000  Level FlightAware Transoceanic
Sat 11:47:00 AM 28.7087 -67.6024 169° South 478 550 37,000  Level FlightAware Transoceanic
Sat 11:48:00 AM 28.5804 -67.5732 169° South 478 550 37,000  Level FlightAware Transoceanic
Sat 11:49:00 AM 28.4522 -67.5441 169° South 478 550 37,000  Level FlightAware Transoceanic
Sat 11:50:00 AM 28.3240 -67.5150 169° South 478 550 37,000  Level FlightAware Transoceanic
Sat 11:51:00 AM 28.1957 -67.4860 169° South 478 550 37,000  Level FlightAware Transoceanic
Sat 11:52:00 AM 28.0674 -67.4571 169° South 478 550 37,000  Level FlightAware Transoceanic
Sat 11:53:00 AM 27.9392 -67.4282 169° South 478 550 37,000  Level FlightAware Transoceanic
Sat 11:54:00 AM 27.8109 -67.3994 169° South 478 550 37,000  Level FlightAware Transoceanic
Sat 11:55:00 AM 27.6826 -67.3707 169° South 478 550 37,000  Level FlightAware Transoceanic
Sat 11:56:00 AM 27.5544 -67.3420 169° South 478 550 37,000  Level FlightAware Transoceanic
Sat 11:57:00 AM 27.4261 -67.3135 169° South 478 550 37,000  Level FlightAware Transoceanic
Sat 11:58:00 AM 27.2978 -67.2849 169° South 478 550 37,000  Level FlightAware Transoceanic
Sat 11:59:00 AM 27.1695 -67.2565 169° South 478 550 37,000  Level FlightAware Transoceanic
Sat 12:00:00 PM 27.0412 -67.2281 169° South 478 550 37,000  Level FlightAware Transoceanic
Sat 12:01:00 PM 26.9129 -67.1998 169° South 478 550 37,000  Level FlightAware Transoceanic
Sat 12:02:00 PM 26.7846 -67.1715 169° South 478 550 37,000  Level FlightAware Transoceanic
Sat 12:02:11 PM 27.0833 -67.2500 169° South 506 582 37,000  Level New York Oceanic (ODAPS)
Sat 12:03:00 PM 26.6562 -67.1433 169° South 478 550 37,000  Level FlightAware Transoceanic
Sat 12:04:00 PM 26.5279 -67.1152 169° South 478 550 37,000  Level FlightAware Transoceanic
Sat 12:05:00 PM 26.3996 -67.0871 169° South 478 550 37,000  Level FlightAware Transoceanic
Sat 12:06:00 PM 26.2712 -67.0591 169° South 478 550 37,000  Level FlightAware Transoceanic
Sat 12:07:00 PM 26.1429 -67.0311 169° South 478 550 37,000  Level FlightAware Transoceanic
Sat 12:08:00 PM 26.1285 -67.0381 169° South 506 582 37,000  Level FlightAware Transoceanic
Sat 12:09:00 PM 25.9921 -67.0081 169° South 506 582 37,000  Level FlightAware Transoceanic
Sat 12:10:00 PM 25.8557 -66.9782 169° South 506 582 37,000  Level FlightAware Transoceanic
Sat 12:11:00 PM 25.7192 -66.9484 169° South 506 582 37,000  Level FlightAware Transoceanic
Sat 12:12:00 PM 25.5828 -66.9186 169° South 506 582 37,000  Level FlightAware Transoceanic
Sat 12:13:00 PM 25.4464 -66.8889 169° South 506 582 37,000  Level FlightAware Transoceanic
Sat 12:14:00 PM 25.3099 -66.8593 169° South 506 582 37,000  Level FlightAware Transoceanic
Sat 12:15:00 PM 25.1734 -66.8297 169° South 506 582 37,000  Level FlightAware Transoceanic
Sat 12:16:00 PM 25.0370 -66.8002 169° South 506 582 37,000  Level FlightAware Transoceanic
Sat 12:17:00 PM 24.9005 -66.7707 169° South 506 582 37,000  Level FlightAware Transoceanic
Sat 12:18:00 PM 24.7640 -66.7414 169° South 506 582 37,000  Level FlightAware Transoceanic
Sat 12:19:00 PM 24.6275 -66.7121 169° South 506 582 37,000  Level FlightAware Transoceanic
Sat 12:20:00 PM 24.4911 -66.6828 169° South 506 582 37,000  Level FlightAware Transoceanic
Sat 12:21:00 PM 24.3546 -66.6536 169° South 506 582 37,000  Level FlightAware Transoceanic
Sat 12:22:00 PM 24.2181 -66.6245 169° South 506 582 37,000  Level FlightAware Transoceanic
Sat 12:23:00 PM 24.0816 -66.5954 169° South 506 582 37,000  Level FlightAware Transoceanic
Sat 12:24:00 PM 23.9450 -66.5664 169° South 506 582 37,000  Level FlightAware Transoceanic
Sat 12:25:00 PM 23.8085 -66.5375 169° South 506 582 37,000  Level FlightAware Transoceanic
Sat 12:26:00 PM 23.6720 -66.5086 169° South 506 582 37,000  Level FlightAware Transoceanic
Sat 12:27:00 PM 23.5355 -66.4798 169° South 506 582 37,000  Level FlightAware Transoceanic
Sat 12:28:00 PM 23.3989 -66.4510 169° South 506 582 37,000  Level FlightAware Transoceanic
Sat 12:29:00 PM 23.2624 -66.4223 169° South 506 582 37,000  Level FlightAware Transoceanic
Sat 12:30:00 PM 23.1259 -66.3937 169° South 506 582 37,000  Level FlightAware Transoceanic
Sat 12:31:00 PM 22.9893 -66.3651 169° South 506 582 37,000  Level FlightAware Transoceanic
Sat 12:32:00 PM 22.8528 -66.3366 169° South 506 582 37,000  Level FlightAware Transoceanic
Sat 12:33:00 PM 22.7162 -66.3082 169° South 506 582 37,000  Level FlightAware Transoceanic
Sat 12:34:00 PM 22.5796 -66.2797 169° South 506 582 37,000  Level FlightAware Transoceanic
Sat 12:35:00 PM 22.4431 -66.2514 169° South 506 582 37,000  Level FlightAware Transoceanic
Sat 12:35:20 PM 22.9167 -66.3500 169° South 465 535 37,000  Level New York Oceanic (ODAPS)
Sat 12:36:00 PM 22.3065 -66.2231 169° South 506 582 37,000  Level FlightAware Transoceanic
Sat 12:37:00 PM 22.1699 -66.1948 169° South 506 582 37,000  Level FlightAware Transoceanic
Sat 12:37:05 PM 22.2667 -66.2167 169° South 460 529 37,000  Level San Juan Center
Sat 12:38:00 PM 22.0333 -66.1667 169° South 506 582 37,000  Level FlightAware Transoceanic
Sat 12:38:05 PM 22.1333 -66.1833 167° South 460 529 37,000  Level San Juan Center
Sat 12:39:00 PM 21.9200 -66.1433 169° South 506 582 37,000  Level FlightAware Transoceanic
Sat 12:39:06 PM 22.0167 -66.1500 165° South 460 529 37,000  Level San Juan Center
Sat 12:40:00 PM 21.8067 -66.1199 169° South 506 582 37,000  Level FlightAware Transoceanic
Sat 12:40:06 PM 21.8833 -66.1333 173° South 460 529 37,000  Level San Juan Center
Sat 12:41:00 PM 21.8067 -66.1199 169° South 465 535 37,000  Level FlightAware Transoceanic
Sat 12:41:06 PM 21.7500 -66.1000 167° South 460 529 37,000  Level San Juan Center
Sat 12:42:00 PM 21.6933 -66.0966 169° South 465 535 37,000  Level FlightAware Transoceanic
Sat 12:42:07 PM 21.6333 -66.0833 172° South 460 529 37,000  Level San Juan Center
Sat 12:43:07 PM 21.5000 -66.0500 167° South 460 529 37,000  Level San Juan Center
Sat 12:44:07 PM 21.3833 -66.0167 165° South 450 518 37,000  Level San Juan Center
Sat 12:45:07 PM 21.2833 -65.9833 163° South 460 529 37,000  Level San Juan Center
Sat 12:46:08 PM 21.1333 -65.9500 168° South 460 529 37,000  Level San Juan Center
Sat 12:47:08 PM 21.0000 -65.9167 167° South 460 529 37,000  Level San Juan Center
Sat 12:48:08 PM 20.8833 -65.8833 165° South 460 529 37,000  Level San Juan Center
Sat 12:49:09 PM 20.7500 -65.8667 173° South 460 529 37,000  Level San Juan Center
Sat 12:50:09 PM 20.6167 -65.8333 167° South 460 529 37,000  Level San Juan Center
Sat 12:51:10 PM 20.5000 -65.8000 165° South 460 529 37,000  Level San Juan Center
Sat 12:52:10 PM 20.3667 -65.7667 167° South 470 541 37,000 -150 Level San Juan Center
Sat 12:53:10 PM 20.2500 -65.7333 165° South 470 541 36,700 -600 Descending San Juan Center
Sat 12:54:10 PM 20.1167 -65.7000 167° South 470 541 35,800 -1,190 Descending San Juan Center
Sat 12:55:11 PM 19.9833 -65.6667 167° South 480 552 34,300 -2,380 Descending San Juan Center
Sat 12:56:11 PM 19.8500 -65.6333 167° South 480 552 31,000 -3,350 Descending San Juan Center
Sat 12:57:11 PM 19.7167 -65.6167 173° South 480 552 27,600 -2,926 Descending San Juan Center
Sat 12:58:12 PM 19.6000 -65.5833 165° South 460 529 25,100 -2,380 Descending San Juan Center
Sat 12:59:12 PM 19.4667 -65.5500 167° South 440 506 22,800 -2,450 Descending San Juan Center
Sat 01:00:12 PM 19.3500 -65.5167 165° South 430 495 20,200 -2,331 Descending San Juan Center
Sat 01:01:13 PM 19.2500 -65.5000 171° South 410 472 18,100 -2,331 Descending San Juan Center
Sat 01:02:13 PM 19.1333 -65.4667 165° South 400 460 15,500 -2,500 Descending San Juan Center
Sat 01:03:13 PM 19.0167 -65.4333 165° South 380 437 13,100 -2,250 Descending San Juan Center
Sat 01:04:13 PM 18.9167 -65.4167 171° South 370 426 11,000 -1,041 Descending San Juan Center
Sat 01:05:14 PM 18.8333 -65.4000 169° South 320 368 11,000 -347 Level San Juan Center
Sat 01:06:14 PM 18.7500 -65.3667 159° South 280 322 10,300 -1,000 Descending San Juan Center
Sat 01:07:14 PM 18.6833 -65.3333 155° Southeast 300 345 9,000 -1,300 Descending San Juan Center
Sat 01:08:14 PM 18.6000 -65.3000 159° South 280 322 7,700 -1,388 Descending San Juan Center
Sat 01:09:15 PM 18.5333 -65.2667 155° Southeast 280 322 6,200 -1,388 Descending San Juan Center
Sat 01:10:15 PM 18.4667 -65.2333 155° Southeast 270 311 4,900 -1,400 Descending San Juan Center
Sat 01:11:15 PM 18.4000 -65.2000 155° Southeast 260 299 3,400 -1,041 Descending San Juan Center
Sat 01:12:16 PM 18.3333 -65.1833 167° South 250 288 2,800 -446 Descending San Juan Center
Sat 01:13:16 PM 18.3333 -65.1167 90° East 200 230 2,500 -300 Descending San Juan Center

Login

Don't have an account? Register now (free) for customized features, flight alerts, and more!